Time;durP1;ratioP1;P1;durP2;ratioP2;P2;SDS_P1;SDS_P2;PMS_P1;PMS_P2;Temp;Humidity;BMP_temperature;BMP_pressure;BME280_temperature;BME280_humidity;BME280_pressure;Samples;Min_cycle;Max_cycle;Signal;HPM_P1;HPM_P2
2023/03/07 00:01:07;;;;;;;51.35;21.50;;;;;;;-0.92;90.05;98932.53;1745956;81;25812;-67
2023/03/07 00:03:35;;;;;;;56.40;21.75;;;;;;;-0.97;89.81;98942.61;1746068;82;25603;-67
2023/03/07 00:06:09;;;;;;;54.10;21.20;;;;;;;-1.02;89.74;98941.28;1745999;81;25599;-66
2023/03/07 00:08:36;;;;;;;53.80;21.95;;;;;;;-1.06;89.67;98942.89;1746122;82;25472;-67
2023/03/07 00:11:07;;;;;;;50.55;22.20;;;;;;;-1.12;89.60;98936.79;1746056;81;27481;-66
2023/03/07 00:13:37;;;;;;;58.33;23.32;;;;;;;-1.17;89.64;98940.23;1745987;82;25548;-66
2023/03/07 00:16:10;;;;;;;62.08;22.93;;;;;;;-1.22;89.63;98940.77;1746092;82;25563;-66
2023/03/07 00:18:38;;;;;;;54.50;22.15;;;;;;;-1.25;89.75;98937.30;1745306;82;25525;-66
2023/03/07 00:21:09;;;;;;;55.35;21.87;;;;;;;-1.27;89.84;98938.89;1746048;82;25555;-66
2023/03/07 00:23:41;;;;;;;52.98;22.67;;;;;;;-1.29;89.82;98941.53;1746097;82;27530;-67
2023/03/07 00:26:15;;;;;;;54.05;20.48;;;;;;;-1.32;89.69;98946.31;1746013;81;25564;-67
2023/03/07 00:28:44;;;;;;;54.08;20.77;;;;;;;-1.36;89.56;98937.83;1746090;82;25587;-66
2023/03/07 00:31:14;;;;;;;51.10;20.92;;;;;;;-1.39;89.51;98936.48;1746133;82;25648;-66
2023/03/07 00:33:42;;;;;;;50.28;20.30;;;;;;;-1.42;89.41;98938.88;1745860;82;25614;-67
2023/03/07 00:36:19;;;;;;;64.60;23.95;;;;;;;-1.46;89.23;98947.07;1719266;82;27558;-67
2023/03/07 00:38:46;;;;;;;53.87;21.77;;;;;;;-1.51;89.14;98938.59;1746010;82;25472;-67
2023/03/07 00:41:18;;;;;;;51.75;21.57;;;;;;;-1.55;89.03;98944.14;1746021;81;25663;-67
2023/03/07 00:43:47;;;;;;;56.10;21.75;;;;;;;-1.60;88.83;98940.97;1746058;82;26109;-67
2023/03/07 00:46:19;;;;;;;56.23;22.07;;;;;;;-1.65;88.69;98940.14;1746211;81;25878;-67
2023/03/07 00:48:47;;;;;;;49.75;20.68;;;;;;;-1.71;88.73;98938.80;1746052;82;27484;-67
2023/03/07 00:51:17;;;;;;;54.88;22.48;;;;;;;-1.73;88.62;98942.78;1745885;82;25362;-66
2023/03/07 00:53:43;;;;;;;50.90;20.02;;;;;;;-1.76;88.90;98937.99;1746088;82;25562;-67
2023/03/07 00:56:21;;;;;;;48.60;19.52;;;;;;;-1.77;89.12;98941.69;1746044;81;26057;-66
2023/03/07 00:58:48;;;;;;;46.95;19.17;;;;;;;-1.78;89.32;98944.88;1731165;82;25573;-66
2023/03/07 01:01:20;;;;;;;49.40;19.42;;;;;;;-1.80;89.38;98937.72;1746201;82;27609;-67
2023/03/07 01:03:48;;;;;;;47.40;17.98;;;;;;;-1.81;89.43;98938.77;1745299;82;25406;-67
2023/03/07 01:06:18;;;;;;;45.67;19.20;;;;;;;-1.82;89.40;98943.00;1746030;82;25564;-67
2023/03/07 01:08:46;;;;;;;39.13;16.00;;;;;;;-1.81;89.37;98936.66;1746138;81;25495;-67
2023/03/07 01:11:15;;;;;;;43.65;17.45;;;;;;;-1.81;89.41;98937.98;1745996;82;25615;-66
2023/03/07 01:13:43;;;;;;;34.63;14.07;;;;;;;-1.81;89.44;98939.30;1746161;82;27512;-66
2023/03/07 01:16:21;;;;;;;46.02;18.65;;;;;;;-1.79;89.55;98938.51;1745951;82;25544;-66
2023/03/07 01:18:55;;;;;;;48.15;19.02;;;;;;;-1.79;89.36;98931.34;1746230;82;25417;-66
2023/03/07 01:21:36;;;;;;;47.27;19.85;;;;;;;-1.80;89.03;98936.39;1731217;82;25621;-66
2023/03/07 01:24:07;;;;;;;44.35;17.25;;;;;;;-1.83;88.62;98936.13;1746290;82;25459;-66
2023/03/07 01:26:34;;;;;;;34.80;15.65;;;;;;;-1.89;88.21;98938.75;1746203;82;27661;-66
2023/03/07 01:29:05;;;;;;;42.45;15.85;;;;;;;-1.94;87.91;98933.94;1746065;82;25605;-65
2023/03/07 01:31:34;;;;;;;37.93;15.60;;;;;;;-1.99;87.75;98930.77;1717470;82;25776;-66
2023/03/07 01:34:03;;;;;;;45.23;16.42;;;;;;;-2.04;87.50;98936.05;1746076;82;26147;-66
2023/03/07 01:36:33;;;;;;;37.20;17.20;;;;;;;-2.11;87.45;98930.98;1746278;82;25646;-66
2023/03/07 01:39:09;;;;;;;41.25;16.67;;;;;;;-2.15;87.35;98924.59;1746183;81;28466;-66
2023/03/07 01:41:38;;;;;;;41.77;16.73;;;;;;;-2.22;87.23;98926.69;1731153;82;26305;-66
2023/03/07 01:44:24;;;;;;;38.33;16.23;;;;;;;-2.26;87.24;98930.91;1746175;81;25402;-66
2023/03/07 01:46:54;;;;;;;38.13;16.87;;;;;;;-2.31;87.15;98923.73;1718681;82;25691;-67
2023/03/07 01:49:38;;;;;;;36.10;15.45;;;;;;;-2.36;87.06;98925.03;1746181;82;25401;-67
2023/03/07 01:52:16;;;;;;;40.20;15.72;;;;;;;-2.42;86.88;98919.95;1746116;82;27606;-67
2023/03/07 01:54:49;;;;;;;40.00;15.80;;;;;;;-2.49;86.85;98921.51;1746345;82;25193;-67
2023/03/07 01:57:20;;;;;;;38.63;16.20;;;;;;;-2.55;86.88;98916.72;1731017;81;25513;-67
2023/03/07 01:59:51;;;;;;;45.33;17.07;;;;;;;-2.60;86.90;98919.88;1717337;82;26026;-67
2023/03/07 02:02:22;;;;;;;37.95;15.65;;;;;;;-2.67;86.89;98916.91;1746164;82;25454;-67
2023/03/07 02:05:00;;;;;;;43.38;17.70;;;;;;;-2.75;86.79;98913.41;1746133;82;27551;-68
2023/03/07 02:07:33;;;;;;;42.15;17.37;;;;;;;-2.81;86.85;98914.42;1744856;82;26138;-67
2023/03/07 02:10:01;;;;;;;40.83;15.98;;;;;;;-2.87;86.98;98920.75;1746151;82;25394;-67
2023/03/07 02:12:29;;;;;;;38.88;17.10;;;;;;;-2.92;87.26;98920.17;1746172;82;25513;-67
2023/03/07 02:14:55;;;;;;;45.12;18.57;;;;;;;-2.93;87.48;98922.54;1746144;82;25403;-67
2023/03/07 02:17:21;;;;;;;42.88;16.40;;;;;;;-2.96;87.47;98923.07;1746093;82;27642;-68
2023/03/07 02:20:04;;;;;;;42.93;16.23;;;;;;;-2.98;87.68;98921.71;1746009;82;25962;-67
2023/03/07 02:22:31;;;;;;;36.73;16.45;;;;;;;-2.97;87.92;98926.75;1746131;82;25606;-67
2023/03/07 02:25:21;;;;;;;38.08;15.95;;;;;;;-2.96;88.25;98926.22;1746050;82;25548;-67
2023/03/07 02:27:52;;;;;;;36.25;14.70;;;;;;;-2.96;88.39;98927.03;1746140;82;25521;-66
2023/03/07 02:30:19;;;;;;;39.78;16.40;;;;;;;-2.94;88.60;98932.08;1731095;82;27717;-66
2023/03/07 02:32:46;;;;;;;41.35;16.07;;;;;;;-2.93;88.79;98929.16;1745962;82;25587;-66
2023/03/07 02:35:19;;;;;;;41.77;16.57;;;;;;;-2.90;88.90;98929.19;1746080;82;25662;-67
2023/03/07 02:37:50;;;;;;;33.30;15.72;;;;;;;-2.89;88.80;98932.12;1744548;82;25602;-67
2023/03/07 02:40:22;;;;;;;37.83;16.97;;;;;;;-2.86;89.00;98932.91;1746197;82;25560;-66
2023/03/07 02:42:53;;;;;;;37.78;15.68;;;;;;;-2.84;89.16;98925.00;1746096;82;27485;-66
2023/03/07 02:45:20;;;;;;;37.17;15.65;;;;;;;-2.80;89.30;98923.97;1746022;82;25438;-66
2023/03/07 02:47:46;;;;;;;44.40;17.42;;;;;;;-2.77;89.36;98920.81;1746092;82;25549;-66
2023/03/07 02:50:15;;;;;;;40.52;17.37;;;;;;;-2.75;89.33;98925.33;1746025;81;25523;-66
2023/03/07 02:52:43;;;;;;;41.50;16.17;;;;;;;-2.72;89.48;98923.50;1746240;82;25642;-67
2023/03/07 02:55:11;;;;;;;35.90;15.25;;;;;;;-2.70;89.46;98924.57;1746086;82;27495;-67
2023/03/07 02:57:37;;;;;;;40.23;16.07;;;;;;;-2.69;89.29;98922.99;1745837;82;25597;-67
2023/03/07 03:00:09;;;;;;;43.50;17.07;;;;;;;-2.69;89.08;98920.85;1746292;81;25391;-67
2023/03/07 03:02:35;;;;;;;40.73;16.42;;;;;;;-2.69;88.91;98916.38;1719190;82;25495;-67
2023/03/07 03:05:01;;;;;;;43.05;16.85;;;;;;;-2.70;88.91;98915.30;1746236;81;25675;-67
2023/03/07 03:07:28;;;;;;;47.23;18.27;;;;;;;-2.73;88.72;98913.95;1746045;82;27496;-67
2023/03/07 03:09:55;;;;;;;45.80;16.90;;;;;;;-2.76;88.54;98913.13;1745972;81;25388;-67
2023/03/07 03:12:21;;;;;;;38.65;16.55;;;;;;;-2.82;88.40;98918.92;1745993;82;25498;-66
2023/03/07 03:14:48;;;;;;;42.33;14.93;;;;;;;-2.89;87.85;98913.06;1746088;82;25746;-67
2023/03/07 03:17:16;;;;;;;41.10;17.17;;;;;;;-2.97;87.46;98921.46;1746087;82;25413;-67
2023/03/07 03:19:42;;;;;;;39.42;16.32;;;;;;;-3.05;87.40;98920.59;1746084;82;28163;-67
2023/03/07 03:22:09;;;;;;;37.17;16.12;;;;;;;-3.12;87.32;98913.41;1745964;82;25988;-67
2023/03/07 03:24:39;;;;;;;47.45;16.62;;;;;;;-3.18;87.47;98923.16;1718166;82;25410;-67
2023/03/07 03:27:08;;;;;;;42.75;15.53;;;;;;;-3.24;87.56;98917.54;1746092;82;25465;-67
2023/03/07 03:29:35;;;;;;;35.80;15.98;;;;;;;-3.30;87.55;98914.56;1746111;81;25561;-66
2023/03/07 03:32:24;;;;;;;41.30;16.57;;;;;;;-3.35;87.49;98914.52;1717047;82;27750;-66
2023/03/07 03:34:51;;;;;;;36.13;15.85;;;;;;;-3.43;87.39;98914.47;1643694;87;25475;-65
2023/03/07 03:37:19;;;;;;;34.10;13.80;;;;;;;-3.49;87.29;98914.14;1645619;87;25569;-66
2023/03/07 03:39:45;;;;;;;39.83;15.65;;;;;;;-3.57;87.27;98911.44;1639064;87;34479;-66
2023/03/07 03:42:12;;;;;;;38.78;16.35;;;;;;;-3.61;87.59;98911.64;1639174;87;25711;-66
2023/03/07 03:44:39;;;;;;;38.65;15.15;;;;;;;-3.64;87.87;98906.88;1638754;87;27618;-65
2023/03/07 03:47:05;;;;;;;45.95;17.55;;;;;;;-3.68;87.93;98904.44;1638383;87;25468;-66
2023/03/07 03:49:31;;;;;;;42.40;16.60;;;;;;;-3.71;88.11;98915.00;1638484;87;25536;-66
2023/03/07 03:51:58;;;;;;;41.90;15.85;;;;;;;-3.76;88.01;98914.41;1638389;87;27701;-66
2023/03/07 03:54:24;;;;;;;40.48;15.72;;;;;;;-3.80;87.71;98915.16;1638444;87;25593;-66
2023/03/07 03:56:54;;;;;;;38.63;16.07;;;;;;;-3.88;87.37;98908.98;1638461;87;29714;-66
2023/03/07 03:59:21;;;;;;;41.18;15.98;;;;;;;-3.97;87.19;98913.91;1638527;87;25707;-66
2023/03/07 04:01:50;;;;;;;40.88;16.82;;;;;;;-4.04;87.26;98910.66;1638472;87;25620;-66
2023/03/07 04:04:16;;;;;;;37.63;14.90;;;;;;;-4.09;87.31;98909.28;1639212;87;25761;-65
2023/03/07 04:06:42;;;;;;;37.67;15.03;;;;;;;-4.15;87.11;98907.91;1638473;87;25646;-66
2023/03/07 04:09:10;;;;;;;36.70;15.20;;;;;;;-4.19;87.19;98909.95;1638530;87;27674;-65
2023/03/07 04:11:37;;;;;;;39.23;15.85;;;;;;;-4.24;87.32;98908.56;1648296;86;25470;-66
2023/03/07 04:14:03;;;;;;;40.60;14.95;;;;;;;-4.29;87.49;98915.11;1667487;86;25510;-67
2023/03/07 04:16:30;;;;;;;34.88;16.45;;;;;;;-4.33;87.63;98912.16;1667388;86;25579;-67
2023/03/07 04:18:57;;;;;;;43.30;16.07;;;;;;;-4.37;87.86;98908.42;1672861;85;25484;-67
2023/03/07 04:21:24;;;;;;;34.33;16.00;;;;;;;-4.42;87.76;98907.83;1674724;85;27515;-67
2023/03/07 04:23:54;;;;;;;37.70;16.23;;;;;;;-4.46;87.98;98905.41;1645199;87;25658;-67
2023/03/07 04:26:20;;;;;;;40.12;16.05;;;;;;;-4.47;88.19;98906.45;1666558;85;25569;-67
2023/03/07 04:28:48;;;;;;;45.35;16.07;;;;;;;-4.50;88.30;98902.97;1674727;85;25473;-67
2023/03/07 04:31:20;;;;;;;38.20;15.83;;;;;;;-4.52;88.47;98901.09;1672845;85;25600;-66
2023/03/07 04:33:49;;;;;;;45.00;17.55;;;;;;;-4.54;88.54;98901.34;1646575;85;28178;-66
2023/03/07 04:36:18;;;;;;;39.00;15.90;;;;;;;-4.56;88.58;98891.55;1677822;85;25434;-66
2023/03/07 04:38:47;;;;;;;48.75;18.92;;;;;;;-4.57;88.65;98895.75;1672697;85;30119;-66
2023/03/07 04:41:19;;;;;;;44.63;16.50;;;;;;;-4.59;88.72;98898.63;1672675;85;25604;-66
2023/03/07 04:43:46;;;;;;;44.05;18.85;;;;;;;-4.61;88.73;98900.72;1672058;85;25469;-66
2023/03/07 04:46:16;;;;;;;44.18;17.23;;;;;;;-4.62;88.43;98903.60;1672516;85;27650;-66
2023/03/07 04:48:45;;;;;;;38.15;17.20;;;;;;;-4.67;88.47;98898.25;1672469;85;25443;-66
2023/03/07 04:51:12;;;;;;;46.83;18.07;;;;;;;-4.71;88.55;98895.30;1672685;85;25402;-66
2023/03/07 04:53:39;;;;;;;36.38;16.65;;;;;;;-4.74;88.69;98897.10;1672642;85;25664;-66
2023/03/07 04:56:09;;;;;;;42.95;17.62;;;;;;;-4.79;88.54;98899.14;1672686;85;25605;-66
2023/03/07 04:58:37;;;;;;;48.28;18.00;;;;;;;-4.83;88.70;98901.20;1672770;85;27502;-66
2023/03/07 05:01:05;;;;;;;50.60;19.60;;;;;;;-4.84;88.84;98900.91;1672591;85;25624;-66
2023/03/07 05:03:34;;;;;;;50.73;18.92;;;;;;;-4.89;88.88;98900.31;1673018;85;25560;-66
2023/03/07 05:06:10;;;;;;;51.63;21.23;;;;;;;-4.92;89.00;98907.38;1665653;85;25839;-66
2023/03/07 05:08:37;;;;;;;53.17;20.72;;;;;;;-4.96;89.03;98901.00;1672838;85;25393;-66
2023/03/07 05:11:05;;;;;;;58.60;21.00;;;;;;;-4.96;89.13;98898.36;1672665;85;27621;-66
2023/03/07 05:13:31;;;;;;;54.93;21.93;;;;;;;-4.99;89.20;98904.91;1672599;85;25422;-66
2023/03/07 05:16:00;;;;;;;48.73;19.75;;;;;;;-5.02;89.22;98898.00;1672707;85;25619;-66
2023/03/07 05:18:28;;;;;;;57.98;22.42;;;;;;;-5.04;89.10;98898.23;1665423;85;25535;-66
2023/03/07 05:20:55;;;;;;;59.15;22.00;;;;;;;-5.07;89.09;98898.73;1672693;85;25635;-65
2023/03/07 05:23:22;;;;;;;53.35;21.85;;;;;;;-5.09;89.28;98900.80;1645224;85;28601;-65
2023/03/07 05:25:51;;;;;;;59.40;21.02;;;;;;;-5.11;89.44;98885.73;1672615;85;25395;-65
2023/03/07 05:28:18;;;;;;;58.00;21.48;;;;;;;-5.11;89.53;98888.37;1672910;85;25413;-65
2023/03/07 05:30:46;;;;;;;64.42;20.40;;;;;;;-5.12;89.77;98890.22;1672630;85;25629;-65
2023/03/07 05:33:15;;;;;;;51.90;21.12;;;;;;;-5.14;89.88;98892.80;1644253;86;25254;-65
2023/03/07 05:35:43;;;;;;;54.63;22.75;;;;;;;-5.17;89.91;98898.05;1667708;86;28068;-66
2023/03/07 05:38:11;;;;;;;56.37;22.95;;;;;;;-5.18;90.05;98900.93;1672972;85;25569;-66
2023/03/07 05:40:37;;;;;;;69.53;23.35;;;;;;;-5.20;89.88;98893.25;1674805;85;25648;-66
2023/03/07 05:43:06;;;;;;;54.77;21.80;;;;;;;-5.22;90.04;98900.61;1667535;86;25425;-66
2023/03/07 05:45:33;;;;;;;60.30;20.95;;;;;;;-5.20;90.10;98896.42;1667588;86;25426;-66
2023/03/07 05:48:01;;;;;;;65.80;22.30;;;;;;;-5.19;90.13;98905.91;1672869;85;27452;-64
2023/03/07 05:50:29;;;;;;;59.15;23.57;;;;;;;-5.20;90.17;98903.80;1674757;85;25828;-65
2023/03/07 05:52:56;;;;;;;63.15;23.02;;;;;;;-5.18;90.28;98901.72;1661297;86;25490;-65
2023/03/07 05:55:25;;;;;;;71.28;23.22;;;;;;;-5.15;90.31;98913.11;1667524;86;25553;-65
2023/03/07 05:57:53;;;;;;;62.73;22.80;;;;;;;-5.12;90.65;98927.66;1667592;86;25556;-65
2023/03/07 06:00:22;;;;;;;62.17;22.43;;;;;;;-5.11;90.65;98923.97;1673159;85;27297;-66
2023/03/07 06:02:50;;;;;;;60.80;22.75;;;;;;;-5.12;90.61;98925.82;1647531;85;25675;-65
2023/03/07 06:05:17;;;;;;;61.73;23.20;;;;;;;-5.10;90.80;98929.53;1674809;85;25612;-65
2023/03/07 06:07:43;;;;;;;64.37;24.47;;;;;;;-5.07;91.08;98929.06;1674841;85;26016;-65
2023/03/07 06:10:12;;;;;;;69.85;26.15;;;;;;;-5.05;91.23;98923.55;1674849;85;25597;-65
2023/03/07 06:12:40;;;;;;;44.08;16.93;;;;;;;-5.01;91.32;98929.94;1674958;85;27747;-65
2023/03/07 06:15:09;;;;;;;68.35;23.80;;;;;;;-4.97;91.57;98923.95;1674728;85;25779;-65
2023/03/07 06:17:35;;;;;;;64.05;24.30;;;;;;;-4.91;91.67;98931.41;1675014;85;25611;-65
2023/03/07 06:20:03;;;;;;;71.67;25.35;;;;;;;-4.85;91.77;98927.83;1674776;85;27711;-66
2023/03/07 06:22:33;;;;;;;64.53;24.05;;;;;;;-4.78;91.84;98932.94;1647640;85;25594;-65
2023/03/07 06:25:00;;;;;;;;;;;;;;;-4.70;92.24;98937.28;1675436;85;27478;-65
2023/03/07 06:27:26;;;;;;;66.77;20.43;;;;;;;-4.63;92.09;98931.84;1672794;84;25447;-65
2023/03/07 06:29:52;;;;;;;56.95;21.77;;;;;;;-4.57;92.25;98930.85;1674912;85;25598;-65
2023/03/07 06:32:20;;;;;;;66.02;24.52;;;;;;;-4.51;92.23;98927.78;1667573;86;25591;-65
2023/03/07 06:34:48;;;;;;;62.17;21.82;;;;;;;-4.46;92.20;98921.75;1672863;85;25437;-65
2023/03/07 06:37:15;;;;;;;59.50;22.67;;;;;;;-4.38;92.17;98918.70;1675578;85;26571;-65
2023/03/07 06:39:45;;;;;;;55.45;21.17;;;;;;;-4.29;92.81;98919.06;1675610;85;25770;-65
2023/03/07 06:42:14;;;;;;;39.78;15.80;;;;;;;-4.08;94.02;98925.42;1675657;85;25413;-65
2023/03/07 06:44:41;;;;;;;54.40;21.95;;;;;;;-3.90;94.30;98922.44;1675637;85;25610;-65
2023/03/07 06:47:08;;;;;;;57.25;22.67;;;;;;;-3.68;94.20;98924.27;1675536;85;25454;-65
2023/03/07 06:49:35;;;;;;;52.58;21.00;;;;;;;-3.52;93.79;98922.56;1675539;85;27468;-65
2023/03/07 06:52:01;;;;;;;56.68;22.40;;;;;;;-3.45;92.64;98918.69;1675477;85;27376;-65
2023/03/07 06:54:28;;;;;;;64.82;24.43;;;;;;;-3.46;91.43;98921.04;1675556;85;25561;-64
2023/03/07 06:56:54;;;;;;;59.67;23.47;;;;;;;-3.46;91.00;98923.69;1675504;85;25658;-65
2023/03/07 06:59:21;;;;;;;54.48;22.90;;;;;;;-3.50;90.22;98917.84;1675635;85;25410;-65
2023/03/07 07:01:48;;;;;;;52.38;21.35;;;;;;;-3.48;90.55;98926.32;1675565;85;27001;-66
2023/03/07 07:04:15;;;;;;;59.18;23.00;;;;;;;-3.42;90.97;98918.19;1675470;85;25835;-64
2023/03/07 07:06:42;;;;;;;61.88;23.27;;;;;;;-3.39;90.40;98922.98;1675539;85;25456;-64
2023/03/07 07:09:13;;;;;;;54.50;21.35;;;;;;;-3.45;89.70;98912.07;1675441;85;25482;-65
2023/03/07 07:11:39;;;;;;;61.60;22.50;;;;;;;-3.48;89.62;98908.60;1675520;85;25577;-65
2023/03/07 07:14:06;;;;;;;54.42;22.55;;;;;;;-3.53;89.33;98909.88;1675446;85;27530;-65
2023/03/07 07:16:54;;;;;;;54.77;23.50;;;;;;;-3.54;89.46;98910.13;1675420;85;25431;-65
2023/03/07 07:19:20;;;;;;;59.90;23.02;;;;;;;-3.54;89.49;98904.33;1616909;88;25693;-65
2023/03/07 07:21:47;;;;;;;57.80;22.22;;;;;;;-3.47;89.59;98910.21;1617040;88;25716;-64
2023/03/07 07:24:14;;;;;;;54.95;22.42;;;;;;;-3.31;91.19;98902.41;1593157;88;25632;-64
2023/03/07 07:26:41;;;;;;;56.08;22.52;;;;;;;-3.06;91.43;98894.68;1617105;88;29641;-64
2023/03/07 07:29:07;;;;;;;52.23;21.93;;;;;;;-2.70;93.06;98895.45;1617127;88;25754;-63
2023/03/07 07:31:39;;;;;;;56.53;21.42;;;;;;;-2.15;94.35;98898.09;1617050;88;25749;-65
2023/03/07 07:34:06;;;;;;;53.85;22.60;;;;;;;-1.91;91.50;98893.16;1617032;88;25614;-65
2023/03/07 07:36:33;;;;;;;51.73;22.22;;;;;;;-1.77;89.82;98893.97;1617099;88;25504;-64
2023/03/07 07:39:05;;;;;;;57.95;23.42;;;;;;;-1.71;89.31;98879.68;1593195;88;27622;-64
2023/03/07 07:41:33;;;;;;;55.20;21.05;;;;;;;-1.62;88.52;98882.61;1617025;88;25540;-64
2023/03/07 07:43:59;;;;;;;59.00;23.77;;;;;;;-1.47;88.13;98878.65;1617140;88;25663;-66
2023/03/07 07:46:29;;;;;;;50.17;22.75;;;;;;;-1.40;86.87;98872.55;1617150;88;25685;-65
2023/03/07 07:48:56;;;;;;;52.60;20.65;;;;;;;-0.96;88.97;98871.22;1617259;88;25486;-65
2023/03/07 07:51:23;;;;;;;53.63;21.20;;;;;;;-0.60;87.26;98862.64;1617153;88;25907;-64
2023/03/07 07:53:49;;;;;;;55.88;23.10;;;;;;;-0.22;87.32;98870.24;1617022;88;25536;-63
2023/03/07 07:56:16;;;;;;;59.42;23.38;;;;;;;0.12;85.98;98862.88;1652156;84;25463;-62
2023/03/07 07:58:43;;;;;;;51.45;22.05;;;;;;;0.28;84.41;98871.58;1703808;84;25626;-63
2023/03/07 08:01:15;;;;;;;48.17;21.27;;;;;;;0.26;83.56;98859.09;1703870;84;25630;-63
2023/03/07 08:03:43;;;;;;;53.30;20.85;;;;;;;0.30;82.62;98862.78;1703924;84;27425;-64
2023/03/07 08:06:11;;;;;;;52.88;21.93;;;;;;;0.52;85.40;98856.50;1703798;84;25727;-64
2023/03/07 08:08:38;;;;;;;56.48;30.05;;;;;;;1.11;85.88;98857.34;1703890;84;25641;-64
2023/03/07 08:11:05;;;;;;;54.63;25.43;;;;;;;1.73;87.31;98857.23;1703854;84;26049;-64
2023/03/07 08:13:32;;;;;;;106.70;95.77;;;;;;;2.42;86.73;98853.09;1703968;84;25579;-65
2023/03/07 08:15:59;;;;;;;102.22;92.33;;;;;;;2.77;85.79;98854.16;1703969;84;27494;-63
2023/03/07 08:18:25;;;;;;;100.97;90.57;;;;;;;3.27;86.77;98844.20;1671005;84;25481;-64
2023/03/07 08:20:51;;;;;;;55.98;29.92;;;;;;;3.59;87.10;98849.23;1706636;84;25406;-65
2023/03/07 08:23:18;;;;;;;49.77;22.58;;;;;;;3.57;80.25;98852.20;1695937;84;27701;-64
2023/03/07 08:25:45;;;;;;;50.38;24.07;;;;;;;3.39;80.69;98845.06;1706478;84;25393;-64
2023/03/07 08:28:12;;;;;;;46.90;22.32;;;;;;;3.69;82.72;98848.47;1695676;84;27457;-64
2023/03/07 08:30:38;;;;;;;49.13;22.65;;;;;;;3.89;80.37;98839.24;1695594;84;27284;-64
2023/03/07 08:33:06;;;;;;;46.50;20.70;;;;;;;4.09;80.08;98854.08;1695703;84;25448;-64
2023/03/07 08:35:32;;;;;;;49.10;20.77;;;;;;;4.09;77.77;98849.28;1695643;84;25577;-65
2023/03/07 08:37:59;;;;;;;47.90;21.60;;;;;;;4.16;77.81;98846.98;1695825;84;25603;-65
2023/03/07 08:40:29;;;;;;;46.45;20.62;;;;;;;4.24;78.66;98846.27;1695650;84;27466;-65
2023/03/07 08:42:58;;;;;;;;;;;;;;;4.33;76.60;98850.91;1698146;84;25630;-65
2023/03/07 08:45:25;;;;;;;40.30;17.65;;;;;;;4.62;76.46;98835.21;1696056;84;25589;-64
2023/03/07 08:47:56;;;;;;;39.55;17.77;;;;;;;4.78;74.78;98844.21;1695614;84;25621;-64
2023/03/07 08:50:27;;;;;;;97.22;88.17;;;;;;;5.02;74.99;98826.45;1695749;84;25644;-65
2023/03/07 08:52:54;;;;;;;97.17;88.12;;;;;;;5.68;77.40;98832.48;1695682;84;27619;-66
2023/03/07 08:55:21;;;;;;;98.52;89.40;;;;;;;6.12;75.27;98823.98;1695662;84;25699;-67
2023/03/07 08:57:48;;;;;;;98.12;89.05;;;;;;;6.03;72.49;98821.30;1695666;84;25395;-66
2023/03/07 09:00:16;;;;;;;96.75;88.27;;;;;;;6.36;72.08;98820.83;1695643;84;25479;-66
2023/03/07 09:02:44;;;;;;;94.83;86.67;;;;;;;6.44;69.36;98815.23;1695742;84;25404;-67
2023/03/07 09:05:10;;;;;;;88.85;80.90;;;;;;;6.44;68.78;98813.33;1695662;84;28186;-67
2023/03/07 09:07:37;;;;;;;60.58;55.00;;;;;;;6.38;68.68;98813.80;1706433;84;25479;-68
2023/03/07 09:10:05;;;;;;;60.28;54.38;;;;;;;6.28;66.04;98809.53;1695697;84;25554;-68
2023/03/07 09:12:34;;;;;;;85.05;77.60;;;;;;;6.10;66.17;98803.38;1666108;84;25575;-66
2023/03/07 09:15:01;;;;;;;97.00;88.40;;;;;;;5.75;64.40;98799.27;1695726;84;25415;-67
2023/03/07 09:17:29;;;;;;;49.03;43.73;;;;;;;5.75;64.40;98799.27;1695738;83;27341;-67
2023/03/07 09:19:55;;;;;;;33.15;21.82;;;;;;;5.91;66.05;98799.07;1699326;84;25728;-67
2023/03/07 09:22:21;;;;;;;96.65;88.25;;;;;;;6.33;67.67;98798.09;1699410;84;25623;-67
2023/03/07 09:24:50;;;;;;;97.10;88.50;;;;;;;6.54;65.77;98797.44;1699388;84;25880;-67
2023/03/07 09:27:16;;;;;;;97.20;88.62;;;;;;;6.30;65.29;98800.06;1699500;84;25453;-67
2023/03/07 09:29:42;;;;;;;95.55;87.55;;;;;;;6.35;65.33;98799.91;1699416;84;27494;-67
2023/03/07 09:32:10;;;;;;;95.22;86.67;;;;;;;6.78;68.51;98796.14;1719085;83;28383;-66
2023/03/07 09:34:37;;;;;;;92.85;84.70;;;;;;;6.81;64.98;98790.91;1699364;84;25426;-68
2023/03/07 09:37:04;;;;;;;94.07;85.28;;;;;;;6.53;64.46;98791.26;1699425;84;25509;-66
2023/03/07 09:39:33;;;;;;;96.77;88.10;;;;;;;6.08;62.36;98793.48;1720816;83;25340;-69
2023/03/07 09:42:18;;;;;;;92.92;83.85;;;;;;;5.46;62.20;98783.19;1698934;84;27418;-66
2023/03/07 09:45:11;;;;;;;70.23;63.77;;;;;;;4.86;63.45;98783.98;1698566;84;25613;-67
2023/03/07 09:48:14;;;;;;;92.05;83.40;;;;;;;4.52;65.69;98775.76;1698801;84;25393;-65
2023/03/07 09:51:05;;;;;;;90.90;81.87;;;;;;;4.54;66.51;98778.92;1603392;87;34928;-67
2023/03/07 09:53:38;;;;;;;100.85;91.35;;;;;;;4.47;67.37;98776.11;1639379;87;25568;-66
2023/03/07 09:56:14;;;;;;;100.35;91.08;;;;;;;4.40;67.98;98770.95;1638861;86;27379;-65
2023/03/07 09:58:46;;;;;;;99.00;89.47;;;;;;;4.39;67.32;98771.52;1639264;87;27389;-66
2023/03/07 10:01:19;;;;;;;97.67;88.27;;;;;;;4.13;68.01;98764.61;1639306;87;25574;-66
2023/03/07 11:43:52;;;;;;;51.45;25.05;;;;;;;5.59;70.05;98591.05;1887098;76;35028;-66
2023/03/07 11:47:00;;;;;;;75.40;39.45;;;;;;;5.40;70.10;98588.70;1788038;80;25588;-66
2023/03/07 11:50:02;;;;;;;50.88;25.48;;;;;;;5.22;69.09;98573.94;1820381;78;27558;-63
2023/03/07 11:53:04;;;;;;;44.85;21.40;;;;;;;4.92;70.80;98578.88;1788072;80;25386;-63
2023/03/07 11:55:36;;;;;;;40.48;19.27;;;;;;;5.07;71.51;98588.36;1788093;80;25558;-63
2023/03/07 11:58:36;;;;;;;47.33;21.02;;;;;;;5.21;71.61;98572.91;1788000;80;25653;-62
2023/03/07 12:01:41;;;;;;;46.13;21.15;;;;;;;5.38;72.04;98563.55;1788248;80;25567;-61
2023/03/07 12:04:19;;;;;;;40.95;19.65;;;;;;;5.60;71.03;98563.92;1757040;80;28374;-55
2023/03/07 12:07:24;;;;;;;43.50;20.95;;;;;;;5.75;71.60;98561.27;1788025;80;25589;-60
2023/03/07 12:10:17;;;;;;;39.63;20.23;;;;;;;5.91;70.18;98542.78;1757385;80;25612;-58
2023/03/07 12:13:17;;;;;;;42.65;20.32;;;;;;;6.08;69.37;98533.11;1788270;80;25372;-59
2023/03/07 12:16:18;;;;;;;41.73;19.70;;;;;;;6.08;69.32;98542.50;1788099;80;25441;-58
2023/03/07 12:18:56;;;;;;;38.10;17.92;;;;;;;6.18;67.78;98532.78;1788051;80;27607;-60
2023/03/07 12:21:57;;;;;;;40.33;20.32;;;;;;;6.26;69.51;98531.94;1787276;80;27313;-61
2023/03/07 12:24:31;;;;;;;41.05;20.82;;;;;;;6.50;70.83;98528.67;1682040;85;25545;-62
2023/03/07 12:27:16;;;;;;;41.85;20.90;;;;;;;6.91;68.11;98545.97;1742605;82;25448;-60
2023/03/07 12:29:57;;;;;;;39.05;19.65;;;;;;;6.83;66.55;98523.96;1743149;82;25690;-60
2023/03/07 12:32:26;;;;;;;41.83;19.35;;;;;;;6.90;68.19;98525.56;1742352;82;27566;-58
2023/03/07 12:35:07;;;;;;;32.20;17.55;;;;;;;6.89;68.39;98517.83;1743958;82;25727;-60
2023/03/07 12:37:54;;;;;;;33.95;19.00;;;;;;;7.15;66.84;98516.84;1743931;82;25558;-63
2023/03/07 12:40:29;;;;;;;40.15;20.00;;;;;;;7.04;65.03;98512.42;1743877;82;25760;-55
2023/03/07 12:43:22;;;;;;;34.10;17.85;;;;;;;6.91;63.85;98510.22;1744753;81;25691;-58
2023/03/07 12:46:21;;;;;;;34.27;18.85;;;;;;;6.80;65.06;98513.08;1762667;81;27475;-56
2023/03/07 12:49:14;;;;;;;32.90;17.07;;;;;;;6.62;64.05;98513.17;1669982;85;25751;-59
2023/03/07 12:51:50;;;;;;;33.53;16.67;;;;;;;6.54;64.72;98497.36;1669905;85;25609;-60
2023/03/07 12:54:41;;;;;;;35.98;15.83;;;;;;;6.48;64.98;98490.59;1668289;85;25498;-58
2023/03/07 12:57:18;;;;;;;32.85;16.45;;;;;;;6.38;65.73;98490.19;1669432;86;25613;-57
2023/03/07 12:59:45;;;;;;;26.40;14.45;;;;;;;6.39;66.01;98481.81;1679069;83;27512;-62
2023/03/07 13:02:35;;;;;;;30.05;15.38;;;;;;;6.30;65.41;98478.36;1711131;83;25761;-60
2023/03/07 13:08:56;;;;;;;30.60;15.23;;;;;;;6.12;65.39;98475.00;1711050;83;25692;-58
2023/03/07 13:11:28;;;;;;;35.05;16.32;;;;;;;6.14;66.00;98474.12;1710104;83;25559;-58
2023/03/07 13:13:59;;;;;;;28.40;15.05;;;;;;;6.12;65.37;98470.98;1711298;83;27748;-57
2023/03/07 13:16:45;;;;;;;31.37;16.60;;;;;;;6.00;64.81;98475.69;1711179;83;25716;-58
2023/03/07 13:19:41;;;;;;;27.50;14.50;;;;;;;5.77;64.17;98459.81;1711286;83;25554;-58
2023/03/07 13:22:22;;;;;;;29.82;14.73;;;;;;;5.75;64.69;98463.91;1711245;83;25907;-58